Here is the Quick Look data you requested

The Data originates at the National Weather Service, and is made available here by the UAlbany Department of Atmospheric and Environmental Sciences

Surface Observations

KCVG 161552Z 32005KT 10SM FEW026 BKN032 14/07 A3032 RMK AO2 SLP267 T01390072=
KCVG 161652Z 35009KT 10SM SCT055 15/07 A3033 RMK AO2 SLP267 T01500067=
KCVG 161752Z 01007KT 10SM SCT040 BKN055 14/06 A3031 RMK AO2 SLP261 T01440056
 10161 20072 58006=
KCVG 161852Z VRB06KT 10SM SCT050 16/04 A3029 RMK AO2 SLP254 T01610039=
KCVG 161952Z 34007KT 10SM SCT055 16/02 A3028 RMK AO2 SLP253 T01610022=
KCVG 162052Z 33007KT 10SM SCT060 14/03 A3028 RMK AO2 SLP253 T01440033 56008=
KCVG 162152Z 34005KT 10SM SCT060 15/03 A3027 RMK AO2 SLP250 T01500028=
KCVG 162252Z 34004KT 10SM FEW060 14/02 A3028 RMK AO2 SLP252 T01390022=
KCVG 162352Z 33003KT 10SM CLR 11/04 A3029 RMK AO2 SLP257 T01110044 10167 20106
 53003=
KCVG 170052Z 00000KT 7SM CLR 08/05 A3030 RMK AO2 SLP259 T00830050=
KCVG 170152Z 00000KT 10SM CLR 08/04 A3031 RMK AO2 SLP264 T00830044=
KCVG 170252Z 00000KT 10SM CLR 07/06 A3032 RMK AO2 SLP266 T00720056 53009=
KCVG 170352Z 00000KT 10SM CLR 07/04 A3032 RMK AO2 SLP265 T00720044=
KCVG 170452Z 00000KT 10SM CLR 06/04 A3031 RMK AO2 SLP264 T00560044 401670050=
KCVG 170552Z 00000KT 10SM CLR 04/04 A3031 RMK AO2 SLP264 T00440044 10117 20044
 58003=
KCVG 170652Z 00000KT 10SM CLR 05/05 A3031 RMK AO2 SLP264 T00500050=
KCVG 170752Z 00000KT 9SM CLR 04/04 A3032 RMK AO2 SLP265 T00440044=
KCVG 170852Z 19003KT 10SM CLR 05/04 A3032 RMK AO2 SLP267 T00500044 53004=
KCVG 170952Z 00000KT 10SM CLR 04/04 A3034 RMK AO2 SLP273 T00390039=
KCVG 171052Z 00000KT 7SM CLR 04/04 A3035 RMK AO2 SLP277 BCFG T00440044=
KCVG 171152Z 00000KT 7SM CLR 03/03 A3035 RMK AO2 SLP280 RIVER FG NW-N BCFG
 T00280028 10061 20028 51011=
KCVG 171252Z 00000KT 10SM FEW300 08/06 A3037 RMK AO2 SLP284 RIVER FG N
 T00780061=
KCVG 171352Z 21003KT 10SM FEW300 11/06 A3038 RMK AO2 SLP289 T01060061=
KCVG 171452Z 20006KT 10SM SCT300 13/06 A3038 RMK AO2 SLP286 T01330061 50008=
KCVG 171552Z VRB06KT 10SM FEW300 16/06 A3038 RMK AO2 SLP284 T01560056=